createdAt,value
2018-05-26T00:00:41.137Z,9.67
2018-05-26T00:03:07.370Z,9.87
2018-05-26T00:05:33.594Z,9.93
2018-05-26T00:08:00.391Z,9.17
2018-05-26T00:10:27.659Z,9.17
2018-05-26T00:12:54.977Z,8.60
2018-05-26T00:15:23.010Z,8.97
2018-05-26T00:17:49.999Z,9.93
2018-05-26T00:20:16.460Z,8.50
2018-05-26T00:22:50.246Z,8.10
2018-05-26T00:25:16.964Z,8.20
2018-05-26T00:27:43.919Z,8.20
2018-05-26T00:30:10.885Z,8.40
2018-05-26T00:32:37.082Z,7.97
2018-05-26T00:35:04.202Z,8.13
2018-05-26T00:37:30.427Z,9.13
2018-05-26T00:39:56.630Z,8.10
2018-05-26T00:42:23.939Z,7.93
2018-05-26T00:44:51.930Z,7.43
2018-05-26T00:47:18.163Z,8.90
2018-05-26T00:49:45.339Z,8.10
2018-05-26T00:52:13.157Z,8.30
2018-05-26T00:54:40.132Z,8.20
2018-05-26T00:57:07.093Z,8.27
2018-05-26T00:59:34.096Z,8.43
2018-05-26T01:02:02.240Z,7.50
2018-05-26T01:04:29.117Z,9.10
2018-05-26T01:06:55.878Z,8.33
2018-05-26T01:09:22.979Z,9.03
2018-05-26T01:11:50.994Z,7.83
2018-05-26T01:14:17.737Z,8.40
2018-05-26T01:16:43.974Z,8.87
2018-05-26T01:19:11.246Z,9.40
2018-05-26T01:21:37.594Z,9.40
2018-05-26T01:24:03.839Z,8.27
2018-05-26T01:26:31.457Z,7.93
2018-05-26T01:28:58.390Z,9.10
2018-05-26T01:31:24.982Z,8.70
2018-05-26T01:33:52.167Z,8.50
2018-05-26T01:36:18.383Z,9.17
2018-05-26T01:38:44.677Z,8.10
2018-05-26T01:41:11.655Z,8.07
2018-05-26T01:43:38.971Z,8.30
2018-05-26T01:46:07.488Z,8.27
2018-05-26T01:48:34.670Z,8.87
2018-05-26T01:51:02.304Z,8.57
2018-05-26T01:53:28.540Z,7.67
2018-05-26T01:55:54.755Z,8.40
2018-05-26T01:58:20.935Z,8.93
2018-05-26T02:00:47.175Z,13.37
2018-05-26T02:03:14.556Z,23.23
2018-05-26T02:05:41.821Z,9.93
2018-05-26T02:08:08.982Z,9.87
2018-05-26T02:10:36.236Z,11.07
2018-05-26T02:13:02.449Z,10.10
2018-05-26T02:15:28.675Z,11.17
2018-05-26T02:17:54.890Z,11.03
2018-05-26T02:20:21.147Z,10.80
2018-05-26T02:22:48.253Z,10.30
2018-05-26T02:35:00.786Z,9.40
2018-05-26T02:37:27.075Z,10.05
2018-05-26T02:39:53.462Z,8.97
2018-05-26T02:42:19.739Z,8.83
2018-05-26T02:44:46.510Z,10.43
2018-05-26T02:47:13.521Z,10.40
2018-05-26T02:49:40.773Z,9.60
2018-05-26T02:52:06.978Z,10.87
2018-05-26T02:54:33.928Z,10.20
2018-05-26T02:57:01.880Z,9.77
2018-05-26T02:59:28.102Z,9.60
2018-05-26T03:01:54.333Z,10.30
2018-05-26T03:04:26.664Z,9.77
2018-05-26T03:06:59.220Z,9.83
2018-05-26T03:09:31.525Z,8.73
2018-05-26T03:12:03.935Z,9.17
2018-05-26T03:14:37.612Z,8.43
2018-05-26T03:17:04.880Z,8.70
2018-05-26T03:19:31.861Z,9.30
2018-05-26T03:21:58.104Z,9.10
2018-05-26T03:24:24.314Z,7.67
2018-05-26T03:26:51.134Z,9.00
2018-05-26T03:29:18.083Z,8.50
2018-05-26T03:31:45.050Z,8.23
2018-05-26T03:34:12.217Z,8.60
2018-05-26T03:36:39.819Z,8.80
2018-05-26T03:39:06.610Z,8.67
2018-05-26T03:41:33.652Z,9.93
2018-05-26T03:44:00.388Z,8.60
2018-05-26T03:46:26.610Z,7.83
2018-05-26T03:48:53.257Z,8.20
2018-05-26T03:51:20.731Z,8.57
2018-05-26T03:53:47.758Z,8.53
2018-05-26T03:56:27.333Z,8.03
2018-05-26T03:59:05.856Z,7.77
2018-05-26T04:01:33.615Z,8.53
2018-05-26T04:04:00.624Z,9.00
2018-05-26T04:06:26.877Z,8.20
2018-05-26T04:08:53.693Z,8.70
2018-05-26T04:11:20.038Z,7.97
2018-05-26T04:13:47.578Z,8.03
2018-05-26T04:16:14.818Z,7.53
2018-05-26T04:18:42.338Z,8.50
2018-05-26T04:21:08.550Z,7.90
2018-05-26T04:23:34.751Z,8.53
2018-05-26T04:26:01.582Z,7.20
2018-05-26T04:28:28.892Z,7.50
2018-05-26T04:30:56.036Z,7.37
2018-05-26T04:33:23.544Z,7.10
2018-05-26T04:35:49.785Z,6.87
2018-05-26T04:38:16.005Z,7.60
2018-05-26T04:40:42.765Z,7.37
2018-05-26T04:43:09.636Z,7.93
2018-05-26T04:45:35.917Z,7.20
2018-05-26T04:48:02.134Z,7.90
2018-05-26T04:50:29.249Z,8.60
2018-05-26T04:52:56.215Z,8.67
2018-05-26T04:55:23.168Z,8.83
2018-05-26T04:57:50.114Z,9.33
2018-05-26T05:00:17.321Z,8.77
2018-05-26T05:02:44.310Z,8.80
2018-05-26T05:05:11.900Z,7.80
2018-05-26T05:07:39.138Z,8.63
2018-05-26T05:10:05.692Z,9.27
2018-05-26T05:12:32.707Z,8.07
2018-05-26T05:14:59.900Z,9.50
2018-05-26T05:17:27.221Z,8.60
2018-05-26T05:19:54.051Z,8.37
2018-05-26T05:22:21.187Z,8.70
2018-05-26T05:24:48.519Z,8.30
2018-05-26T05:27:15.516Z,8.30
2018-05-26T05:29:42.033Z,8.60
2018-05-26T05:32:09.000Z,8.43
2018-05-26T05:34:35.363Z,8.17
2018-05-26T05:37:03.303Z,8.67
2018-05-26T05:39:30.194Z,8.83
2018-05-26T05:41:57.693Z,10.60
2018-05-26T05:44:24.948Z,9.23
2018-05-26T05:46:51.794Z,9.60
2018-05-26T05:49:18.022Z,8.70
2018-05-26T05:51:44.827Z,9.50
2018-05-26T05:54:12.083Z,8.80
2018-05-26T05:56:39.466Z,8.30
2018-05-26T05:59:06.934Z,10.27
2018-05-26T06:01:34.142Z,9.10
2018-05-26T06:04:00.820Z,9.73
2018-05-26T06:06:27.736Z,9.63
2018-05-26T06:08:54.736Z,9.80
2018-05-26T06:11:21.997Z,10.77
2018-05-26T06:13:48.954Z,10.23
2018-05-26T06:16:16.230Z,10.33
2018-05-26T06:18:44.201Z,9.60
2018-05-26T06:21:11.206Z,10.43
2018-05-26T06:23:38.329Z,10.77
2018-05-26T06:26:04.569Z,10.40
2018-05-26T06:28:30.849Z,9.83
2018-05-26T06:30:57.948Z,9.50
2018-05-26T06:33:24.804Z,10.53
2018-05-26T06:35:51.674Z,10.23
2018-05-26T06:38:18.399Z,10.73
2018-05-26T06:40:46.109Z,10.47
2018-05-26T06:43:12.513Z,10.37
2018-05-26T06:45:39.685Z,10.63
2018-05-26T06:48:07.247Z,9.90
2018-05-26T06:50:34.366Z,11.37
2018-05-26T06:53:02.370Z,11.60
2018-05-26T06:55:28.711Z,11.73
2018-05-26T06:57:55.134Z,11.23
2018-05-26T07:00:21.561Z,11.10
2018-05-26T07:02:48.526Z,10.83
2018-05-26T07:05:15.018Z,11.57
2018-05-26T07:07:42.547Z,10.70
2018-05-26T07:10:08.903Z,10.40
2018-05-26T07:12:35.788Z,10.87
2018-05-26T07:15:02.032Z,12.30
2018-05-26T07:17:28.347Z,11.80
2018-05-26T07:19:55.096Z,11.77
2018-05-26T07:22:21.516Z,10.40
2018-05-26T07:24:48.948Z,11.53
2018-05-26T07:27:16.185Z,11.33
2018-05-26T07:29:43.162Z,12.20
2018-05-26T07:32:09.422Z,11.70
2018-05-26T07:34:36.197Z,11.63
2018-05-26T07:37:03.383Z,12.13
2018-05-26T07:39:30.655Z,11.50
2018-05-26T07:41:56.882Z,11.80
2018-05-26T07:44:23.125Z,12.10
2018-05-26T07:46:50.389Z,10.47
2018-05-26T07:49:17.408Z,11.67
2018-05-26T07:51:43.728Z,11.93
2018-05-26T07:54:11.159Z,11.60
2018-05-26T07:56:37.420Z,11.33
2018-05-26T07:59:04.770Z,10.90
2018-05-26T08:01:31.040Z,12.80
2018-05-26T08:03:57.271Z,12.27
2018-05-26T08:06:23.513Z,11.77
2018-05-26T08:08:50.476Z,11.20
2018-05-26T08:11:17.045Z,12.23
2018-05-26T08:13:43.340Z,11.00
2018-05-26T08:16:10.285Z,12.87
2018-05-26T08:18:37.536Z,13.70
2018-05-26T08:21:04.310Z,11.77
2018-05-26T08:23:30.568Z,11.53
2018-05-26T08:25:56.876Z,10.60
2018-05-26T08:28:23.188Z,11.07
2018-05-26T08:30:50.026Z,10.80
2018-05-26T08:33:16.256Z,10.87
2018-05-26T08:35:43.218Z,12.63
2018-05-26T08:38:10.059Z,11.17
2018-05-26T08:40:37.019Z,11.20
2018-05-26T08:43:03.940Z,11.03
2018-05-26T08:45:30.252Z,12.17
2018-05-26T08:47:58.200Z,12.70
2018-05-26T08:50:25.743Z,13.20
2018-05-26T08:52:51.993Z,12.17
2018-05-26T08:55:19.935Z,12.20
2018-05-26T08:57:47.172Z,12.50
2018-05-26T09:00:13.388Z,11.33
2018-05-26T09:02:40.132Z,12.20
2018-05-26T09:05:06.694Z,11.83
2018-05-26T09:07:34.423Z,11.67
2018-05-26T09:10:00.661Z,10.50
2018-05-26T09:12:27.578Z,12.50
2018-05-26T09:14:53.867Z,13.70
2018-05-26T09:17:20.049Z,12.20
2018-05-26T09:19:46.273Z,12.53
2018-05-26T09:22:13.039Z,10.20
2018-05-26T09:24:39.274Z,11.60
2018-05-26T09:27:06.485Z,13.80
2018-05-26T09:29:32.715Z,13.30
2018-05-26T09:31:58.943Z,11.97
2018-05-26T09:34:25.813Z,10.90
2018-05-26T09:36:52.633Z,11.93
2018-05-26T09:39:18.832Z,11.43
2018-05-26T09:41:45.055Z,10.73
2018-05-26T09:44:11.836Z,12.50
2018-05-26T09:46:38.485Z,10.60
2018-05-26T09:49:05.644Z,10.57
2018-05-26T09:51:32.622Z,10.10
2018-05-26T09:53:59.563Z,11.00
2018-05-26T09:56:27.476Z,12.43
2018-05-26T09:58:53.659Z,11.07
2018-05-26T10:01:21.263Z,13.13
2018-05-26T10:03:47.470Z,12.27
2018-05-26T10:06:13.661Z,12.20
2018-05-26T10:08:40.637Z,12.87
2018-05-26T10:11:06.833Z,12.77
2018-05-26T10:13:33.107Z,12.07
2018-05-26T10:15:59.372Z,12.63
2018-05-26T10:18:26.291Z,12.77
2018-05-26T10:20:52.978Z,13.53
2018-05-26T10:23:19.968Z,13.90
2018-05-26T10:25:46.177Z,11.00
2018-05-26T10:28:12.386Z,14.37
2018-05-26T10:30:40.421Z,12.80
2018-05-26T10:33:08.089Z,13.10
2018-05-26T10:35:35.059Z,12.73
2018-05-26T10:38:01.275Z,13.80
2018-05-26T10:40:27.528Z,13.07
2018-05-26T10:42:53.873Z,13.20
2018-05-26T10:45:32.369Z,13.13
2018-05-26T10:47:59.849Z,11.93
2018-05-26T10:50:26.098Z,12.60
2018-05-26T10:52:52.858Z,12.43
2018-05-26T10:55:19.062Z,12.70
2018-05-26T10:57:45.371Z,11.20
2018-05-26T11:00:12.236Z,12.70
2018-05-26T11:02:38.700Z,11.90
2018-05-26T11:05:05.897Z,12.80
2018-05-26T11:07:33.045Z,12.37
2018-05-26T11:09:59.409Z,12.40
2018-05-26T11:12:25.599Z,19.43
2018-05-26T11:14:52.769Z,13.30
2018-05-26T11:17:19.984Z,13.07
2018-05-26T11:19:46.967Z,13.93
2018-05-26T11:22:13.212Z,10.90
2018-05-26T11:24:39.752Z,11.57
2018-05-26T11:27:06.371Z,12.17
2018-05-26T11:29:33.543Z,13.10
2018-05-26T11:31:59.781Z,12.23
2018-05-26T11:34:26.604Z,11.67
2018-05-26T11:36:54.495Z,11.97
2018-05-26T11:39:21.498Z,12.40
2018-05-26T11:41:49.289Z,12.13
2018-05-26T11:44:16.111Z,13.30
2018-05-26T11:46:43.679Z,11.90
2018-05-26T11:49:10.466Z,10.93
2018-05-26T11:51:37.250Z,12.07
2018-05-26T11:54:04.222Z,13.77
2018-05-26T11:56:30.445Z,12.70
2018-05-26T11:58:57.127Z,12.10
2018-05-26T12:01:24.730Z,11.83
2018-05-26T12:03:51.575Z,12.80
2018-05-26T12:06:18.042Z,12.80
2018-05-26T12:08:44.993Z,11.90
2018-05-26T12:11:11.966Z,12.33
2018-05-26T12:13:38.437Z,11.43
2018-05-26T12:16:05.500Z,11.33
2018-05-26T12:18:31.744Z,11.77
2018-05-26T12:20:58.718Z,12.53
2018-05-26T12:23:24.933Z,11.27
2018-05-26T12:25:51.362Z,13.37
2018-05-26T12:28:17.603Z,12.60
2018-05-26T12:30:44.693Z,11.33
2018-05-26T12:33:12.739Z,12.63
2018-05-26T12:35:38.972Z,12.60
2018-05-26T12:38:06.155Z,13.73
2018-05-26T12:40:32.993Z,11.40
2018-05-26T12:42:59.463Z,11.43
2018-05-26T12:45:26.708Z,12.10
2018-05-26T12:47:54.313Z,10.40
2018-05-26T12:50:20.809Z,11.90
2018-05-26T12:52:47.749Z,11.63
2018-05-26T12:55:15.525Z,11.63
2018-05-26T12:57:43.596Z,10.70
2018-05-26T13:00:10.725Z,11.83
2018-05-26T13:02:37.942Z,10.80
2018-05-26T13:05:04.525Z,10.83
2018-05-26T13:07:32.236Z,11.37
2018-05-26T13:10:00.404Z,12.30
2018-05-26T13:12:27.254Z,11.70
2018-05-26T13:14:54.454Z,11.73
2018-05-26T13:17:21.809Z,10.40
2018-05-26T13:19:48.397Z,10.77
2018-05-26T13:22:16.602Z,10.97
2018-05-26T13:24:44.600Z,11.20
2018-05-26T13:27:12.332Z,11.33
2018-05-26T13:29:39.037Z,10.33
2018-05-26T13:32:05.991Z,10.27
2018-05-26T13:34:33.104Z,11.20
2018-05-26T13:36:59.579Z,9.83
2018-05-26T13:39:27.595Z,11.00
2018-05-26T13:41:54.411Z,10.50
2018-05-26T13:44:21.524Z,10.40
2018-05-26T13:46:47.799Z,9.23
2018-05-26T13:49:15.376Z,7.67
2018-05-26T13:51:43.257Z,6.43
2018-05-26T13:54:09.629Z,4.97
2018-05-26T13:56:35.909Z,5.10
2018-05-26T13:59:03.082Z,5.03
2018-05-26T14:01:30.341Z,4.47
2018-05-26T14:03:57.391Z,5.40
2018-05-26T14:06:24.549Z,4.60
2018-05-26T14:08:51.451Z,4.63
2018-05-26T14:11:18.065Z,4.40
2018-05-26T14:13:45.017Z,5.40
2018-05-26T14:16:12.635Z,5.07
2018-05-26T14:18:39.124Z,4.17
2018-05-26T14:21:06.161Z,5.37
2018-05-26T14:23:32.398Z,4.83
2018-05-26T14:26:01.644Z,4.63
2018-05-26T14:28:27.919Z,5.50
2018-05-26T14:30:55.058Z,5.97
2018-05-26T14:33:22.135Z,4.77
2018-05-26T14:35:49.075Z,4.83
2018-05-26T14:38:15.690Z,6.50
2018-05-26T14:40:42.763Z,6.03
2018-05-26T14:43:09.561Z,5.03
2018-05-26T14:45:36.601Z,5.63
2018-05-26T14:48:05.152Z,5.60
2018-05-26T14:50:32.401Z,5.33
2018-05-26T14:52:59.485Z,4.63
2018-05-26T14:55:26.269Z,5.60
2018-05-26T14:57:52.504Z,5.43
2018-05-26T15:00:19.405Z,5.17
2018-05-26T15:02:46.639Z,4.83
2018-05-26T15:05:13.189Z,5.27
2018-05-26T15:07:40.172Z,5.87
2018-05-26T15:10:07.148Z,4.87
2018-05-26T15:12:33.605Z,5.07
2018-05-26T15:15:00.239Z,4.77
2018-05-26T15:17:26.450Z,4.77
2018-05-26T15:19:54.290Z,4.87
2018-05-26T15:22:21.174Z,4.40
2018-05-26T15:24:49.472Z,4.30
2018-05-26T15:27:16.557Z,5.07
2018-05-26T15:29:42.993Z,4.90
2018-05-26T15:32:10.153Z,5.17
2018-05-26T15:34:36.877Z,5.10
2018-05-26T15:37:03.955Z,5.20
2018-05-26T15:39:31.612Z,5.00
2018-05-26T15:41:57.868Z,5.17
2018-05-26T15:44:24.126Z,4.93
2018-05-26T15:46:51.464Z,4.63
2018-05-26T15:49:18.531Z,4.77
2018-05-26T15:51:44.767Z,5.20
2018-05-26T15:54:11.534Z,6.00
2018-05-26T15:56:37.724Z,5.83
2018-05-26T15:59:05.855Z,5.90
2018-05-26T16:01:32.145Z,5.17
2018-05-26T16:03:59.509Z,5.10
2018-05-26T16:06:25.708Z,5.93
2018-05-26T16:08:52.657Z,6.13
2018-05-26T16:11:20.216Z,6.03
2018-05-26T16:13:46.502Z,5.40
2018-05-26T16:16:12.698Z,6.20
2018-05-26T16:18:39.137Z,6.77
2018-05-26T16:21:06.664Z,5.83
2018-05-26T16:23:33.025Z,6.50
2018-05-26T16:26:00.400Z,6.13
2018-05-26T16:28:27.191Z,6.77
2018-05-26T16:30:53.985Z,5.83
2018-05-26T16:33:20.190Z,6.03
2018-05-26T16:35:46.721Z,5.90
2018-05-26T16:38:13.800Z,5.93
2018-05-26T16:40:40.121Z,6.73
2018-05-26T16:43:06.333Z,5.30
2018-05-26T16:45:33.087Z,6.07
2018-05-26T16:48:00.081Z,6.00
2018-05-26T16:50:27.057Z,5.87
2018-05-26T16:52:53.334Z,5.83
2018-05-26T16:55:20.403Z,6.57
2018-05-26T16:57:47.607Z,6.70
2018-05-26T17:00:14.090Z,6.00
2018-05-26T17:02:41.141Z,6.93
2018-05-26T17:05:08.458Z,6.40
2018-05-26T17:07:35.424Z,6.80
2018-05-26T17:10:03.058Z,6.67
2018-05-26T17:12:30.633Z,6.70
2018-05-26T17:14:57.626Z,6.50
2018-05-26T17:17:24.171Z,7.00
2018-05-26T17:19:50.362Z,6.50
2018-05-26T17:22:16.802Z,6.90
2018-05-26T17:24:44.524Z,7.67
2018-05-26T17:27:10.858Z,7.03
2018-05-26T17:29:37.131Z,7.27
2018-05-26T17:32:03.390Z,7.57
2018-05-26T17:34:30.007Z,8.13
2018-05-26T17:36:57.361Z,8.77
2018-05-26T17:39:24.980Z,7.73
2018-05-26T17:41:51.973Z,7.13
2018-05-26T17:44:18.172Z,8.60
2018-05-26T17:46:45.298Z,8.40
2018-05-26T17:49:12.927Z,8.30
2018-05-26T17:51:39.134Z,7.73
2018-05-26T17:54:07.605Z,8.20
2018-05-26T17:56:34.581Z,13.80
2018-05-26T17:59:01.766Z,21.10
2018-05-26T18:01:29.589Z,14.00
2018-05-26T18:03:57.234Z,11.43
2018-05-26T18:06:23.950Z,10.90
2018-05-26T18:08:50.795Z,10.70
2018-05-26T18:11:17.637Z,10.93
2018-05-26T18:13:44.380Z,10.13
2018-05-26T18:16:12.398Z,10.10
2018-05-26T18:18:39.498Z,10.30
2018-05-26T18:21:07.283Z,8.53
2018-05-26T18:23:33.899Z,8.60
2018-05-26T18:26:01.047Z,9.37
2018-05-26T18:28:28.761Z,10.30
2018-05-26T18:30:55.957Z,9.77
2018-05-26T18:33:22.510Z,9.00
2018-05-26T18:35:50.114Z,8.23
2018-05-26T18:38:16.500Z,9.37
2018-05-26T18:40:43.674Z,10.10
2018-05-26T18:43:10.087Z,9.03
2018-05-26T18:45:38.657Z,9.40
2018-05-26T18:48:05.434Z,10.50
2018-05-26T18:50:33.044Z,10.17
2018-05-26T18:53:00.872Z,10.30
2018-05-26T18:55:28.443Z,9.90
2018-05-26T18:57:55.951Z,9.33
2018-05-26T19:00:22.606Z,10.27
2018-05-26T19:02:50.756Z,9.70
2018-05-26T19:05:17.347Z,11.17
2018-05-26T19:07:44.899Z,11.60
2018-05-26T19:10:13.075Z,11.70
2018-05-26T19:12:40.005Z,12.03
2018-05-26T19:15:06.246Z,12.73
2018-05-26T19:17:32.566Z,10.83
2018-05-26T19:19:59.450Z,10.93
2018-05-26T19:22:27.149Z,11.20
2018-05-26T19:24:53.379Z,10.93
2018-05-26T19:27:20.555Z,10.90
2018-05-26T19:29:47.338Z,10.30
2018-05-26T19:32:13.607Z,10.67
2018-05-26T19:34:39.898Z,10.37
2018-05-26T19:37:06.137Z,10.53
2018-05-26T19:39:32.915Z,10.67
2018-05-26T19:42:00.142Z,11.13
2018-05-26T19:44:27.647Z,11.27
2018-05-26T19:46:54.561Z,10.40
2018-05-26T19:49:21.995Z,10.87
2018-05-26T19:51:48.760Z,9.80
2018-05-26T19:54:15.010Z,10.27
2018-05-26T19:56:41.844Z,10.97
2018-05-26T19:59:09.239Z,10.43
2018-05-26T20:01:36.490Z,10.30
2018-05-26T20:04:02.729Z,11.20
2018-05-26T20:06:28.951Z,10.77
2018-05-26T20:08:55.162Z,10.73
2018-05-26T20:11:22.164Z,10.30
2018-05-26T20:13:49.387Z,10.73
2018-05-26T20:16:16.562Z,10.20
2018-05-26T20:18:43.436Z,9.80
2018-05-26T20:21:09.701Z,10.50
2018-05-26T20:23:36.009Z,10.67
2018-05-26T20:26:03.286Z,9.83
2018-05-26T20:28:30.074Z,10.17
2018-05-26T20:30:56.565Z,10.83
2018-05-26T20:33:23.032Z,11.10
2018-05-26T20:35:50.055Z,11.00
2018-05-26T20:38:18.132Z,12.00
2018-05-26T20:40:45.615Z,10.90
2018-05-26T20:43:12.387Z,10.20
2018-05-26T20:45:39.223Z,11.13
2018-05-26T20:48:06.222Z,10.33
2018-05-26T20:50:32.451Z,10.00
2018-05-26T20:55:32.367Z,9.80
2018-05-26T20:58:00.286Z,9.67
2018-05-26T21:00:27.269Z,10.30
2018-05-26T21:02:53.704Z,10.67
2018-05-26T21:05:20.489Z,10.30
2018-05-26T21:07:48.110Z,11.10
2018-05-26T21:10:15.824Z,10.63
2018-05-26T21:12:43.640Z,9.60
2018-05-26T21:15:10.029Z,10.37
2018-05-26T21:17:36.219Z,9.73
2018-05-26T21:20:02.491Z,9.43
2018-05-26T21:22:29.506Z,10.17
2018-05-26T21:24:56.758Z,10.33
2018-05-26T21:27:24.321Z,9.90
2018-05-26T21:29:51.590Z,11.37
2018-05-26T21:32:18.909Z,10.70
2018-05-26T21:34:47.929Z,10.93
2018-05-26T21:37:15.598Z,12.47
2018-05-26T21:39:42.595Z,11.30
2018-05-26T21:42:08.866Z,11.60
2018-05-26T21:44:35.088Z,12.17
2018-05-26T21:47:02.656Z,11.63
2018-05-26T21:49:29.514Z,13.97
2018-05-26T21:51:57.149Z,11.23
2018-05-26T21:54:24.014Z,11.07
2018-05-26T21:56:50.970Z,12.30
2018-05-26T21:59:17.922Z,11.13
2018-05-26T22:01:44.137Z,12.07
2018-05-26T22:04:11.141Z,10.90
2018-05-26T22:06:37.408Z,11.33
2018-05-26T22:09:05.315Z,11.30
2018-05-26T22:11:32.543Z,10.40
2018-05-26T22:13:58.754Z,10.80
2018-05-26T22:16:26.820Z,13.00
2018-05-26T22:18:53.421Z,11.97
2018-05-26T22:21:20.444Z,12.30
2018-05-26T22:23:47.408Z,15.77
2018-05-26T22:26:13.634Z,23.83
2018-05-26T22:28:39.829Z,12.03
2018-05-26T22:31:06.074Z,11.23
2018-05-26T22:33:32.866Z,11.50
2018-05-26T22:35:59.498Z,12.40
2018-05-26T22:38:27.105Z,12.03
2018-05-26T22:40:55.535Z,11.37
2018-05-26T22:43:22.300Z,11.90
2018-05-26T22:45:49.286Z,11.13
2018-05-26T22:48:16.150Z,10.67
2018-05-26T22:50:42.619Z,11.27
2018-05-26T22:53:11.333Z,10.20
2018-05-26T22:55:38.600Z,11.60
2018-05-26T22:58:04.866Z,10.20
2018-05-26T23:00:31.549Z,10.67
2018-05-26T23:02:58.541Z,9.67
2018-05-26T23:05:25.566Z,11.80
2018-05-26T23:07:52.815Z,11.40
2018-05-26T23:10:19.491Z,10.67
2018-05-26T23:12:47.104Z,11.53
2018-05-26T23:15:14.629Z,10.73
2018-05-26T23:17:40.895Z,10.83
2018-05-26T23:20:07.937Z,11.23
2018-05-26T23:22:34.329Z,12.00
2018-05-26T23:25:01.308Z,11.70
2018-05-26T23:27:27.660Z,10.87
2018-05-26T23:29:53.981Z,10.03
2018-05-26T23:32:20.240Z,11.53
2018-05-26T23:34:46.798Z,11.40
2018-05-26T23:37:13.998Z,11.70
2018-05-26T23:39:42.105Z,10.37
2018-05-26T23:42:08.378Z,11.20
2018-05-26T23:44:34.837Z,11.07
2018-05-26T23:47:01.206Z,11.17
2018-05-26T23:49:28.163Z,11.50
2018-05-26T23:51:55.155Z,10.80
2018-05-26T23:54:21.464Z,10.50
2018-05-26T23:56:48.251Z,10.70
2018-05-26T23:59:14.493Z,9.60
